createdAt,value
2018-11-29T00:00:19.773Z,101291.00
2018-11-29T00:05:13.090Z,101306.00
2018-11-29T00:10:06.792Z,101289.00
2018-11-29T00:15:00.068Z,101281.00
2018-11-29T00:19:53.357Z,101269.00
2018-11-29T00:24:46.660Z,101277.00
2018-11-29T00:29:39.990Z,101282.00
2018-11-29T00:34:33.234Z,101289.00
2018-11-29T00:39:26.505Z,101282.00
2018-11-29T00:44:19.777Z,101288.00
2018-11-29T00:49:13.039Z,101274.00
2018-11-29T00:54:06.309Z,101282.00
2018-11-29T00:58:59.564Z,101284.00
2018-11-29T01:03:52.858Z,101286.00
2018-11-29T01:08:46.138Z,101290.00
2018-11-29T01:13:40.028Z,101288.00
2018-11-29T01:18:33.332Z,101291.00
2018-11-29T01:23:26.589Z,101283.00
2018-11-29T01:28:19.815Z,101283.00
2018-11-29T01:33:13.132Z,101281.00
2018-11-29T01:38:06.430Z,101289.00
2018-11-29T01:42:59.707Z,101288.00
2018-11-29T01:47:53.026Z,101295.00
2018-11-29T01:52:46.320Z,101289.00
2018-11-29T01:57:39.643Z,101287.00
2018-11-29T02:02:32.937Z,101280.00
2018-11-29T02:07:26.226Z,101282.00
2018-11-29T02:12:19.488Z,101287.00
2018-11-29T02:17:12.803Z,101284.00
2018-11-29T02:22:06.175Z,101282.00
2018-11-29T02:26:59.456Z,101275.00
2018-11-29T02:31:52.954Z,101271.00
2018-11-29T02:36:46.435Z,101262.00
2018-11-29T02:41:39.694Z,101264.00
2018-11-29T02:46:32.976Z,101256.00
2018-11-29T02:51:26.259Z,101252.00
2018-11-29T02:56:19.561Z,101249.00
2018-11-29T03:01:13.400Z,101240.00
2018-11-29T03:06:06.744Z,101232.00
2018-11-29T03:11:00.074Z,101224.00
2018-11-29T03:15:53.293Z,101229.00
2018-11-29T03:20:46.538Z,101234.00
2018-11-29T03:25:39.798Z,101233.00
2018-11-29T03:30:33.078Z,101230.00
2018-11-29T03:35:26.357Z,101239.00
2018-11-29T03:40:19.691Z,101246.00
2018-11-29T03:45:14.384Z,101238.00
2018-11-29T03:50:12.304Z,101231.00
2018-11-29T03:55:07.436Z,101233.00
2018-11-29T04:00:00.758Z,101234.00
2018-11-29T04:04:54.030Z,101232.00
2018-11-29T04:09:47.292Z,101238.00
2018-11-29T04:14:40.621Z,101227.00
2018-11-29T04:19:34.689Z,101231.00
2018-11-29T04:24:27.963Z,101235.00
2018-11-29T04:29:21.267Z,101222.00
2018-11-29T04:34:14.525Z,101221.00
2018-11-29T04:39:08.574Z,101204.00
2018-11-29T04:44:01.902Z,101201.00
2018-11-29T04:48:55.144Z,101189.00
2018-11-29T04:53:48.458Z,101187.00
2018-11-29T04:58:41.714Z,101190.00
2018-11-29T05:03:34.943Z,101187.00
2018-11-29T05:08:28.173Z,101184.00
2018-11-29T05:13:21.469Z,101175.00
2018-11-29T05:18:14.779Z,101172.00
2018-11-29T05:23:08.050Z,101159.00
2018-11-29T05:28:01.339Z,101157.00
2018-11-29T05:32:54.597Z,101148.00
2018-11-29T05:37:47.924Z,101149.00
2018-11-29T05:42:41.523Z,101156.00
2018-11-29T05:47:34.802Z,101163.00
2018-11-29T05:52:28.058Z,101157.00
2018-11-29T05:57:21.328Z,101160.00
2018-11-29T06:02:14.631Z,101158.00
2018-11-29T06:07:07.989Z,101156.00
2018-11-29T06:12:01.247Z,101154.00
2018-11-29T06:16:54.523Z,101147.00
2018-11-29T06:21:48.805Z,101147.00
2018-11-29T06:26:42.051Z,101145.00
2018-11-29T06:31:35.359Z,101138.00
2018-11-29T06:36:28.621Z,101136.00
2018-11-29T06:41:21.963Z,101131.00
2018-11-29T06:46:15.214Z,101132.00
2018-11-29T06:51:08.595Z,101117.00
2018-11-29T06:56:01.882Z,101110.00
2018-11-29T07:00:55.149Z,101105.00
2018-11-29T07:05:48.440Z,101090.00
2018-11-29T07:10:41.724Z,101087.00
2018-11-29T07:15:35.056Z,101095.00
2018-11-29T07:20:28.378Z,101091.00
2018-11-29T07:25:22.175Z,101084.00
2018-11-29T07:30:17.086Z,101087.00
2018-11-29T07:35:12.126Z,101079.00
2018-11-29T07:40:08.739Z,101070.00
2018-11-29T07:45:02.080Z,101070.00
2018-11-29T07:49:55.363Z,101071.00
2018-11-29T07:54:48.641Z,101055.00
2018-11-29T07:59:42.495Z,101051.00
2018-11-29T08:04:35.771Z,101036.00
2018-11-29T08:09:29.023Z,101035.00
2018-11-29T08:14:22.287Z,101044.00
2018-11-29T08:19:15.541Z,101049.00
2018-11-29T08:24:08.875Z,101058.00
2018-11-29T08:29:02.205Z,101050.00
2018-11-29T08:33:55.489Z,101050.00
2018-11-29T08:38:48.813Z,101062.00
2018-11-29T08:43:42.073Z,101059.00
2018-11-29T08:48:35.352Z,101048.00
2018-11-29T08:53:28.684Z,101062.00
2018-11-29T08:58:21.951Z,101069.00
2018-11-29T09:03:15.232Z,101085.00
2018-11-29T09:08:08.533Z,101088.00
2018-11-29T09:13:01.789Z,101089.00
2018-11-29T09:17:55.051Z,101093.00
2018-11-29T09:22:48.401Z,101100.00
2018-11-29T09:27:41.680Z,101099.00
2018-11-29T09:32:34.969Z,101091.00
2018-11-29T09:37:28.264Z,101076.00
2018-11-29T09:42:21.505Z,101080.00
2018-11-29T09:47:14.791Z,101084.00
2018-11-29T09:52:08.076Z,101077.00
2018-11-29T09:57:01.361Z,101068.00
2018-11-29T10:01:54.635Z,101060.00
2018-11-29T10:06:47.893Z,101057.00
2018-11-29T10:11:41.225Z,101058.00
2018-11-29T10:16:34.496Z,101040.00
2018-11-29T10:21:27.745Z,101039.00
2018-11-29T10:26:21.070Z,101010.00
2018-11-29T10:31:15.097Z,100993.00
2018-11-29T10:36:11.986Z,101004.00
2018-11-29T10:41:09.079Z,100986.00
2018-11-29T10:46:05.797Z,100955.00
2018-11-29T10:51:03.464Z,100929.00
2018-11-29T10:55:57.383Z,100930.00
2018-11-29T11:00:56.245Z,101035.00
2018-11-29T11:05:51.994Z,101045.00
2018-11-29T11:10:45.357Z,101009.00
2018-11-29T11:15:38.972Z,100962.00
2018-11-29T11:20:32.287Z,100988.00
2018-11-29T11:25:25.534Z,101022.00
2018-11-29T11:30:20.312Z,100935.00
2018-11-29T11:35:13.568Z,100990.00
2018-11-29T11:40:11.294Z,100981.00
2018-11-29T11:45:07.240Z,100949.00
2018-11-29T11:50:00.509Z,100940.00
2018-11-29T11:54:53.756Z,100964.00
2018-11-29T11:59:47.019Z,100938.00
2018-11-29T12:04:40.959Z,100926.00
2018-11-29T12:09:34.199Z,100864.00
2018-11-29T12:14:27.449Z,100811.00
2018-11-29T12:19:20.731Z,100678.00
2018-11-29T12:24:14.059Z,100608.00
2018-11-29T12:29:07.719Z,100648.00
2018-11-29T12:34:01.017Z,100778.00
2018-11-29T12:38:54.683Z,100851.00
2018-11-29T12:43:47.957Z,100836.00
2018-11-29T12:48:41.263Z,100819.00
2018-11-29T12:53:34.511Z,100837.00
2018-11-29T12:58:27.820Z,100776.00
2018-11-29T13:03:21.094Z,100783.00
2018-11-29T13:08:14.353Z,100754.00
2018-11-29T13:13:07.712Z,100675.00
2018-11-29T13:18:04.178Z,100756.00
2018-11-29T13:22:57.450Z,100707.00
2018-11-29T13:27:50.791Z,100735.00
2018-11-29T13:32:44.540Z,100721.00
2018-11-29T13:37:37.810Z,100704.00
2018-11-29T13:42:31.144Z,100694.00
2018-11-29T13:47:24.396Z,100706.00
2018-11-29T13:52:17.684Z,100671.00
2018-11-29T13:57:10.992Z,100659.00
2018-11-29T14:02:04.302Z,100637.00
2018-11-29T14:06:57.577Z,100620.00
2018-11-29T14:11:50.880Z,100610.00
2018-11-29T14:16:44.182Z,100608.00
2018-11-29T14:21:37.442Z,100625.00
2018-11-29T14:26:30.711Z,100617.00
2018-11-29T14:31:23.975Z,100640.00
2018-11-29T14:36:17.240Z,100655.00
2018-11-29T14:41:10.644Z,100646.00
2018-11-29T14:46:04.163Z,100636.00
2018-11-29T14:51:02.376Z,100636.00
2018-11-29T14:55:50.851Z,100621.00
2018-11-29T15:00:45.179Z,100607.00
2018-11-29T15:05:38.545Z,100601.00
2018-11-29T15:10:31.867Z,100622.00
2018-11-29T15:15:25.787Z,100607.00
2018-11-29T15:20:24.259Z,100597.00
2018-11-29T15:25:17.605Z,100562.00
2018-11-29T15:30:17.390Z,100557.00
2018-11-29T15:35:10.755Z,100553.00
2018-11-29T15:40:06.535Z,100580.00
2018-11-29T15:44:59.837Z,100588.00
2018-11-29T15:49:53.093Z,100594.00
2018-11-29T15:54:46.555Z,100604.00
2018-11-29T15:59:39.808Z,100607.00
2018-11-29T16:04:33.057Z,100639.00
2018-11-29T16:09:26.307Z,100636.00
2018-11-29T16:14:19.623Z,100637.00
2018-11-29T16:19:12.881Z,100661.00
2018-11-29T16:24:06.207Z,100664.00
2018-11-29T16:28:59.447Z,100668.00
2018-11-29T16:33:52.764Z,100634.00
2018-11-29T16:38:46.736Z,100646.00
2018-11-29T16:43:39.948Z,100651.00
2018-11-29T16:48:33.223Z,100646.00
2018-11-29T16:53:26.480Z,100656.00
2018-11-29T16:58:22.784Z,100669.00
2018-11-29T17:03:16.032Z,100678.00
2018-11-29T17:08:09.310Z,100652.00
2018-11-29T17:13:08.207Z,100651.00
2018-11-29T17:18:01.481Z,100645.00
2018-11-29T17:22:54.722Z,100641.00
2018-11-29T17:27:48.030Z,100635.00
2018-11-29T17:32:41.760Z,100636.00
2018-11-29T17:37:35.020Z,100641.00
2018-11-29T17:42:28.253Z,100640.00
2018-11-29T17:47:21.563Z,100634.00
2018-11-29T17:52:14.860Z,100638.00
2018-11-29T17:57:08.105Z,100646.00
2018-11-29T18:02:01.388Z,100672.00
2018-11-29T18:06:54.663Z,100690.00
2018-11-29T18:11:47.911Z,100688.00
2018-11-29T18:16:41.188Z,100682.00
2018-11-29T18:21:34.451Z,100693.00
2018-11-29T18:26:27.777Z,100684.00
2018-11-29T18:31:21.076Z,100679.00
2018-11-29T18:36:14.441Z,100667.00
2018-11-29T18:41:07.629Z,100680.00
2018-11-29T18:46:00.882Z,100677.00
2018-11-29T18:50:54.226Z,100674.00
2018-11-29T18:55:47.516Z,100679.00
2018-11-29T19:00:40.850Z,100682.00
2018-11-29T19:05:34.128Z,100671.00
2018-11-29T19:10:27.386Z,100668.00
2018-11-29T19:15:21.430Z,100660.00
2018-11-29T19:20:14.712Z,100656.00
2018-11-29T19:25:11.441Z,100640.00
2018-11-29T19:30:10.343Z,100609.00
2018-11-29T19:35:03.641Z,100600.00
2018-11-29T19:39:56.888Z,100642.00
2018-11-29T19:44:50.263Z,100641.00
2018-11-29T19:49:43.491Z,100611.00
2018-11-29T19:54:36.809Z,100621.00
2018-11-29T19:59:30.079Z,100657.00
2018-11-29T20:04:23.364Z,100662.00
2018-11-29T20:09:16.617Z,100657.00
2018-11-29T20:14:09.882Z,100641.00
2018-11-29T20:19:03.248Z,100644.00
2018-11-29T20:23:56.521Z,100631.00
2018-11-29T20:28:49.785Z,100637.00
2018-11-29T20:33:43.049Z,100619.00
2018-11-29T20:38:36.345Z,100631.00
2018-11-29T20:43:29.586Z,100646.00
2018-11-29T20:48:28.503Z,100628.00
2018-11-29T20:53:32.456Z,100619.00
2018-11-29T20:58:25.672Z,100618.00
2018-11-29T21:03:18.973Z,100596.00
2018-11-29T21:08:12.554Z,100588.00
2018-11-29T21:13:06.551Z,100606.00
2018-11-29T21:17:59.813Z,100619.00
2018-11-29T21:22:53.062Z,100627.00
2018-11-29T21:27:46.330Z,100644.00
2018-11-29T21:32:39.659Z,100647.00
2018-11-29T21:37:32.949Z,100666.00
2018-11-29T21:42:26.242Z,100662.00
2018-11-29T21:47:19.487Z,100663.00
2018-11-29T21:52:12.783Z,100661.00
2018-11-29T21:57:06.061Z,100660.00
2018-11-29T22:01:59.327Z,100654.00
2018-11-29T22:06:52.609Z,100643.00
2018-11-29T22:11:45.877Z,100636.00
2018-11-29T22:16:39.167Z,100637.00
2018-11-29T22:21:32.485Z,100640.00
2018-11-29T22:26:25.744Z,100637.00
2018-11-29T22:31:19.060Z,100642.00
2018-11-29T22:36:12.360Z,100648.00
2018-11-29T22:41:05.815Z,100650.00
2018-11-29T22:45:59.266Z,100655.00
2018-11-29T22:50:52.666Z,100659.00
2018-11-29T22:55:45.986Z,100651.00
2018-11-29T23:00:44.843Z,100651.00
2018-11-29T23:05:38.125Z,100651.00
2018-11-29T23:10:31.398Z,100649.00
2018-11-29T23:15:24.764Z,100635.00
2018-11-29T23:20:18.024Z,100639.00
2018-11-29T23:25:13.523Z,100621.00
2018-11-29T23:30:15.269Z,100610.00
2018-11-29T23:35:08.697Z,100611.00
2018-11-29T23:40:02.105Z,100626.00
2018-11-29T23:44:55.410Z,100613.00
2018-11-29T23:49:48.673Z,100606.00
2018-11-29T23:54:41.927Z,100612.00
2018-11-29T23:59:36.143Z,100602.00
